Pisgah, Ohio
Current Conditions -  °F | °C
As of 3:53 PM on Thursday 27 Nov 2014 (Local Time) from KHAO Reporting Station
Overcast Overcast  
Wind Chill: 25°   Ceiling: 2400
Heat Index: 33°   Visibility: 9mi
Dew Point: 24°   Wind: 9mph
Humidity: 70%   Direction: 280°W
Pressure: 30.32"   Gusts: 16mph
Location:  39.3413°N, 84.4053°W
Report Text: KHAO 272053Z AUTO 28008G14KT 9SM BKN024 OVC031 01/M04 A3032 RMK AO2 SLP273 T00061044 53008
Loading
Personal Weather Stations






























Interactive Weather Map New forecast layout! Learn more

10-Day Weather Forecast

Advertisements
Track Severe Weather on mobile